sensor_id;sensor_type;location;lat;lon;timestamp;pressure;altitude;pressure_sealevel;temperature;humidity
55187;BME280;55457;52.002;5.464;2023-12-29T00:01:44;100430.47;;;21.71;40.43
55187;BME280;55457;52.002;5.464;2023-12-29T00:04:10;100447.31;;;21.73;40.58
55187;BME280;55457;52.002;5.464;2023-12-29T00:06:39;100434.84;;;21.72;40.47
55187;BME280;55457;52.002;5.464;2023-12-29T00:09:04;100441.06;;;21.72;40.59
55187;BME280;55457;52.002;5.464;2023-12-29T00:11:30;100431.03;;;21.73;40.46
55187;BME280;55457;52.002;5.464;2023-12-29T00:13:55;100410.97;;;21.74;40.73
55187;BME280;55457;52.002;5.464;2023-12-29T00:16:20;100416.41;;;21.74;40.34
55187;BME280;55457;52.002;5.464;2023-12-29T00:18:46;100409.88;;;21.75;40.81
55187;BME280;55457;52.002;5.464;2023-12-29T00:21:11;100402.84;;;21.74;40.87
55187;BME280;55457;52.002;5.464;2023-12-29T00:23:36;100425.06;;;21.76;40.81
55187;BME280;55457;52.002;5.464;2023-12-29T00:26:02;100433.78;;;21.78;40.92
55187;BME280;55457;52.002;5.464;2023-12-29T00:28:27;100412.91;;;21.78;40.71
55187;BME280;55457;52.002;5.464;2023-12-29T00:30:52;100419.94;;;21.79;40.78
55187;BME280;55457;52.002;5.464;2023-12-29T00:33:18;100434.31;;;21.80;40.97
55187;BME280;55457;52.002;5.464;2023-12-29T00:35:43;100437.84;;;21.80;40.64
55187;BME280;55457;52.002;5.464;2023-12-29T00:38:08;100417.78;;;21.81;40.70
55187;BME280;55457;52.002;5.464;2023-12-29T00:40:34;100424.03;;;21.82;40.91
55187;BME280;55457;52.002;5.464;2023-12-29T00:43:00;100399.06;;;21.80;40.90
55187;BME280;55457;52.002;5.464;2023-12-29T00:45:26;100414.81;;;21.83;40.96
55187;BME280;55457;52.002;5.464;2023-12-29T00:47:54;100407.75;;;21.82;40.91
55187;BME280;55457;52.002;5.464;2023-12-29T00:50:20;100375.19;;;21.82;40.85
55187;BME280;55457;52.002;5.464;2023-12-29T00:52:45;100392.03;;;21.84;40.82
55187;BME280;55457;52.002;5.464;2023-12-29T00:55:11;100414.81;;;21.83;40.68
55187;BME280;55457;52.002;5.464;2023-12-29T00:57:36;100402.63;;;21.85;40.52
55187;BME280;55457;52.002;5.464;2023-12-29T01:00:01;100390.16;;;21.84;40.83
55187;BME280;55457;52.002;5.464;2023-12-29T01:02:26;100405.34;;;21.85;40.55
55187;BME280;55457;52.002;5.464;2023-12-29T01:04:52;100383.34;;;21.82;40.70
55187;BME280;55457;52.002;5.464;2023-12-29T01:07:17;100386.34;;;21.85;40.78
55187;BME280;55457;52.002;5.464;2023-12-29T01:09:42;100392.59;;;21.86;40.42
55187;BME280;55457;52.002;5.464;2023-12-29T01:12:08;100408.84;;;21.86;40.54
55187;BME280;55457;52.002;5.464;2023-12-29T01:14:33;100387.97;;;21.86;40.45
55187;BME280;55457;52.002;5.464;2023-12-29T01:16:59;100393.41;;;21.86;40.45
55187;BME280;55457;52.002;5.464;2023-12-29T01:19:24;100387.16;;;21.86;40.48
55187;BME280;55457;52.002;5.464;2023-12-29T01:21:49;100379.00;;;21.86;40.66
55187;BME280;55457;52.002;5.464;2023-12-29T01:24:15;100380.09;;;21.85;40.46
55187;BME280;55457;52.002;5.464;2023-12-29T01:26:40;100393.13;;;21.83;40.49
55187;BME280;55457;52.002;5.464;2023-12-29T01:29:05;100410.47;;;21.87;40.69
55187;BME280;55457;52.002;5.464;2023-12-29T01:31:31;100394.47;;;21.85;40.50
55187;BME280;55457;52.002;5.464;2023-12-29T01:33:57;100374.69;;;21.85;40.55
55187;BME280;55457;52.002;5.464;2023-12-29T01:36:22;100375.50;;;21.85;40.49
55187;BME280;55457;52.002;5.464;2023-12-29T01:38:48;100369.25;;;21.85;40.66
55187;BME280;55457;52.002;5.464;2023-12-29T01:41:13;100348.06;;;21.82;40.78
55187;BME280;55457;52.002;5.464;2023-12-29T01:44:16;100380.38;;;21.83;40.64
55187;BME280;55457;52.002;5.464;2023-12-29T01:46:42;100373.06;;;21.84;40.52
55187;BME280;55457;52.002;5.464;2023-12-29T01:49:07;100357.88;;;21.83;40.60
55187;BME280;55457;52.002;5.464;2023-12-29T01:51:33;100385.00;;;21.83;40.42
55187;BME280;55457;52.002;5.464;2023-12-29T01:53:59;100382.28;;;21.83;40.43
55187;BME280;55457;52.002;5.464;2023-12-29T01:56:25;100361.63;;;21.82;40.49
55187;BME280;55457;52.002;5.464;2023-12-29T01:58:51;100382.28;;;21.83;40.51
55187;BME280;55457;52.002;5.464;2023-12-29T02:01:17;100393.13;;;21.83;40.41
55187;BME280;55457;52.002;5.464;2023-12-29T02:03:44;100380.63;;;21.82;40.35
55187;BME280;55457;52.002;5.464;2023-12-29T02:06:10;100386.03;;;21.82;40.87
55187;BME280;55457;52.002;5.464;2023-12-29T02:08:36;100379.56;;;21.83;40.49
55187;BME280;55457;52.002;5.464;2023-12-29T02:11:02;100386.03;;;21.82;40.42
55187;BME280;55457;52.002;5.464;2023-12-29T02:13:28;100394.19;;;21.82;40.55
55187;BME280;55457;52.002;5.464;2023-12-29T02:16:00;100383.34;;;21.82;40.54
55187;BME280;55457;52.002;5.464;2023-12-29T02:18:30;100398.56;;;21.83;40.53
55187;BME280;55457;52.002;5.464;2023-12-29T02:20:55;100403.97;;;21.83;40.63
55187;BME280;55457;52.002;5.464;2023-12-29T02:23:20;100403.97;;;21.83;41.00
55187;BME280;55457;52.002;5.464;2023-12-29T02:25:46;100405.59;;;21.84;41.00
55187;BME280;55457;52.002;5.464;2023-12-29T02:28:20;100421.06;;;21.83;40.66
55187;BME280;55457;52.002;5.464;2023-12-29T02:30:54;100410.22;;;21.83;40.80
55187;BME280;55457;52.002;5.464;2023-12-29T02:33:22;100392.31;;;21.82;40.83
55187;BME280;55457;52.002;5.464;2023-12-29T02:35:49;100393.13;;;21.83;40.89
55187;BME280;55457;52.002;5.464;2023-12-29T02:38:16;100382.28;;;21.83;40.76
55187;BME280;55457;52.002;5.464;2023-12-29T02:40:42;100390.16;;;21.84;40.87
55187;BME280;55457;52.002;5.464;2023-12-29T02:43:10;100397.75;;;21.82;40.94
55187;BME280;55457;52.002;5.464;2023-12-29T02:45:35;100400.19;;;21.84;41.05
55187;BME280;55457;52.002;5.464;2023-12-29T02:48:01;100371.97;;;21.85;40.93
55187;BME280;55457;52.002;5.464;2023-12-29T02:50:26;100396.38;;;21.85;41.08
55187;BME280;55457;52.002;5.464;2023-12-29T02:52:52;100385.53;;;21.85;41.20
55187;BME280;55457;52.002;5.464;2023-12-29T02:55:17;100385.53;;;21.85;41.02
55187;BME280;55457;52.002;5.464;2023-12-29T02:57:42;100381.72;;;21.86;41.37
55187;BME280;55457;52.002;5.464;2023-12-29T03:00:08;100395.56;;;21.84;41.24
55187;BME280;55457;52.002;5.464;2023-12-29T03:02:33;100387.16;;;21.86;41.26
55187;BME280;55457;52.002;5.464;2023-12-29T03:04:59;100384.19;;;21.87;41.18
55187;BME280;55457;52.002;5.464;2023-12-29T03:07:25;100402.34;;;21.87;41.47
55187;BME280;55457;52.002;5.464;2023-12-29T03:09:50;100394.22;;;21.87;41.34
55187;BME280;55457;52.002;5.464;2023-12-29T03:12:15;100403.19;;;21.87;41.70
55187;BME280;55457;52.002;5.464;2023-12-29T03:14:41;100391.25;;;21.88;41.43
55187;BME280;55457;52.002;5.464;2023-12-29T03:17:06;100404.25;;;21.86;41.74
55187;BME280;55457;52.002;5.464;2023-12-29T03:19:31;100403.19;;;21.87;41.40
55187;BME280;55457;52.002;5.464;2023-12-29T03:21:57;100405.06;;;21.87;41.46
55187;BME280;55457;52.002;5.464;2023-12-29T03:24:22;100387.97;;;21.86;41.41
55187;BME280;55457;52.002;5.464;2023-12-29T03:26:47;100395.28;;;21.86;41.61
55187;BME280;55457;52.002;5.464;2023-12-29T03:29:13;100388.78;;;21.87;41.32
55187;BME280;55457;52.002;5.464;2023-12-29T03:31:38;100405.06;;;21.87;41.70
55187;BME280;55457;52.002;5.464;2023-12-29T03:34:04;100381.50;;;21.87;41.39
55187;BME280;55457;52.002;5.464;2023-12-29T03:36:30;100383.34;;;21.87;41.29
55187;BME280;55457;52.002;5.464;2023-12-29T03:38:55;100388.78;;;21.87;41.33
55187;BME280;55457;52.002;5.464;2023-12-29T03:41:20;100391.25;;;21.88;41.33
55187;BME280;55457;52.002;5.464;2023-12-29T03:43:46;100386.34;;;21.85;41.37
55187;BME280;55457;52.002;5.464;2023-12-29T03:46:21;100397.75;;;21.87;41.59
55187;BME280;55457;52.002;5.464;2023-12-29T03:48:46;100391.50;;;21.87;41.61
55187;BME280;55457;52.002;5.464;2023-12-29T03:51:12;100396.91;;;21.87;41.73
55187;BME280;55457;52.002;5.464;2023-12-29T03:53:38;100377.94;;;21.87;41.68
55187;BME280;55457;52.002;5.464;2023-12-29T03:56:14;100389.63;;;21.87;41.54
55187;BME280;55457;52.002;5.464;2023-12-29T03:58:39;100380.66;;;21.87;41.61
55187;BME280;55457;52.002;5.464;2023-12-29T04:01:09;100364.94;;;21.89;41.73
55187;BME280;55457;52.002;5.464;2023-12-29T04:03:35;100364.13;;;21.88;41.99
55187;BME280;55457;52.002;5.464;2023-12-29T04:06:01;100369.56;;;21.88;41.90
55187;BME280;55457;52.002;5.464;2023-12-29T04:08:26;100369.56;;;21.88;41.89
55187;BME280;55457;52.002;5.464;2023-12-29T04:10:52;100353.53;;;21.87;41.75
55187;BME280;55457;52.002;5.464;2023-12-29T04:13:17;100358.13;;;21.86;41.91
55187;BME280;55457;52.002;5.464;2023-12-29T04:15:42;100358.94;;;21.87;41.87
55187;BME280;55457;52.002;5.464;2023-12-29T04:18:08;100360.03;;;21.86;42.01
55187;BME280;55457;52.002;5.464;2023-12-29T04:20:33;100366.28;;;21.86;41.81
55187;BME280;55457;52.002;5.464;2023-12-29T04:22:58;100356.22;;;21.87;41.64
55187;BME280;55457;52.002;5.464;2023-12-29T04:25:24;100359.22;;;21.85;41.98
55187;BME280;55457;52.002;5.464;2023-12-29T04:27:49;100376.31;;;21.86;41.80
55187;BME280;55457;52.002;5.464;2023-12-29T04:30:15;100374.69;;;21.85;41.81
55187;BME280;55457;52.002;5.464;2023-12-29T04:32:40;100385.53;;;21.85;41.61
55187;BME280;55457;52.002;5.464;2023-12-29T04:35:05;100380.09;;;21.85;41.82
55187;BME280;55457;52.002;5.464;2023-12-29T04:37:31;100380.09;;;21.85;41.90
55187;BME280;55457;52.002;5.464;2023-12-29T04:39:56;100387.44;;;21.84;41.70
55187;BME280;55457;52.002;5.464;2023-12-29T04:42:21;100378.47;;;21.84;41.70
55187;BME280;55457;52.002;5.464;2023-12-29T04:44:47;100382.28;;;21.83;41.77
55187;BME280;55457;52.002;5.464;2023-12-29T04:47:12;100384.19;;;21.82;41.95
55187;BME280;55457;52.002;5.464;2023-12-29T04:49:37;100374.13;;;21.83;41.66
55187;BME280;55457;52.002;5.464;2023-12-29T04:52:04;100388.75;;;21.82;41.78
55187;BME280;55457;52.002;5.464;2023-12-29T04:54:29;100376.28;;;21.81;41.49
55187;BME280;55457;52.002;5.464;2023-12-29T04:56:54;100371.94;;;21.80;41.71
55187;BME280;55457;52.002;5.464;2023-12-29T04:59:20;100376.56;;;21.79;41.75
55187;BME280;55457;52.002;5.464;2023-12-29T05:01:45;100372.22;;;21.78;41.80
55187;BME280;55457;52.002;5.464;2023-12-29T05:04:10;100371.94;;;21.80;41.74
55187;BME280;55457;52.002;5.464;2023-12-29T05:06:36;100366.78;;;21.78;41.87
55187;BME280;55457;52.002;5.464;2023-12-29T05:09:01;100379.25;;;21.79;41.79
55187;BME280;55457;52.002;5.464;2023-12-29T05:11:26;100365.72;;;21.79;41.97
55187;BME280;55457;52.002;5.464;2023-12-29T05:13:52;100364.88;;;21.79;41.99
55187;BME280;55457;52.002;5.464;2023-12-29T05:16:17;100370.31;;;21.79;41.72
55187;BME280;55457;52.002;5.464;2023-12-29T05:18:43;100370.03;;;21.75;41.68
55187;BME280;55457;52.002;5.464;2023-12-29T05:21:15;100376.81;;;21.78;41.69
55187;BME280;55457;52.002;5.464;2023-12-29T05:23:41;100380.34;;;21.78;41.71
55187;BME280;55457;52.002;5.464;2023-12-29T05:26:07;100371.41;;;21.78;42.06
55187;BME280;55457;52.002;5.464;2023-12-29T05:28:32;100361.59;;;21.77;41.95
55187;BME280;55457;52.002;5.464;2023-12-29T05:30:57;100371.66;;;21.76;41.92
55187;BME280;55457;52.002;5.464;2023-12-29T05:33:24;100363.78;;;21.75;41.74
55187;BME280;55457;52.002;5.464;2023-12-29T05:35:49;100355.63;;;21.75;41.86
55187;BME280;55457;52.002;5.464;2023-12-29T05:38:14;100370.28;;;21.74;41.67
55187;BME280;55457;52.002;5.464;2023-12-29T05:40:40;100377.63;;;21.73;41.92
55187;BME280;55457;52.002;5.464;2023-12-29T05:43:05;100367.56;;;21.74;41.59
55187;BME280;55457;52.002;5.464;2023-12-29T05:45:31;100365.94;;;21.73;41.57
55187;BME280;55457;52.002;5.464;2023-12-29T05:47:56;100393.06;;;21.73;41.63
55187;BME280;55457;52.002;5.464;2023-12-29T05:50:21;100361.84;;;21.70;41.78
55187;BME280;55457;52.002;5.464;2023-12-29T05:52:47;100370.00;;;21.70;41.98
55187;BME280;55457;52.002;5.464;2023-12-29T05:55:16;100368.09;;;21.71;41.58
55187;BME280;55457;52.002;5.464;2023-12-29T05:57:42;100373.53;;;21.71;41.69
55187;BME280;55457;52.002;5.464;2023-12-29T06:00:08;100362.66;;;21.71;41.90
55187;BME280;55457;52.002;5.464;2023-12-29T06:02:39;100351.81;;;21.71;41.91
55187;BME280;55457;52.002;5.464;2023-12-29T06:05:05;100362.66;;;21.71;41.93
55187;BME280;55457;52.002;5.464;2023-12-29T06:07:30;100355.63;;;21.70;41.80
55187;BME280;55457;52.002;5.464;2023-12-29T06:09:56;100348.28;;;21.70;41.73
55187;BME280;55457;52.002;5.464;2023-12-29T06:12:21;100366.47;;;21.70;41.99
55187;BME280;55457;52.002;5.464;2023-12-29T06:14:46;100359.97;;;21.71;41.76
55187;BME280;55457;52.002;5.464;2023-12-29T06:17:12;100336.09;;;21.68;41.97
55187;BME280;55457;52.002;5.464;2023-12-29T06:19:37;100356.69;;;21.69;41.49
55187;BME280;55457;52.002;5.464;2023-12-29T06:22:03;100348.56;;;21.69;41.90
55187;BME280;55457;52.002;5.464;2023-12-29T06:24:28;100338.81;;;21.68;41.87
55187;BME280;55457;52.002;5.464;2023-12-29T06:26:53;100341.53;;;21.68;41.63
55187;BME280;55457;52.002;5.464;2023-12-29T06:29:19;100346.94;;;21.68;41.56
55187;BME280;55457;52.002;5.464;2023-12-29T06:31:44;100346.13;;;21.67;41.77
55187;BME280;55457;52.002;5.464;2023-12-29T06:34:10;100352.59;;;21.66;41.54
55187;BME280;55457;52.002;5.464;2023-12-29T06:36:35;100347.19;;;21.66;41.79
55187;BME280;55457;52.002;5.464;2023-12-29T06:39:00;100361.59;;;21.67;41.50
55187;BME280;55457;52.002;5.464;2023-12-29T06:41:26;100370.78;;;21.66;41.99
55187;BME280;55457;52.002;5.464;2023-12-29T06:43:51;100369.16;;;21.65;41.81
55187;BME280;55457;52.002;5.464;2023-12-29T06:46:17;100357.50;;;21.64;41.46
55187;BME280;55457;52.002;5.464;2023-12-29T06:48:42;100377.28;;;21.65;41.82
55187;BME280;55457;52.002;5.464;2023-12-29T06:51:08;100369.97;;;21.65;41.62
55187;BME280;55457;52.002;5.464;2023-12-29T06:53:35;100350.16;;;21.65;41.68
55187;BME280;55457;52.002;5.464;2023-12-29T06:56:00;100353.97;;;21.63;41.53
55187;BME280;55457;52.002;5.464;2023-12-29T06:58:25;100350.44;;;21.63;41.90
55187;BME280;55457;52.002;5.464;2023-12-29T07:00:51;100352.88;;;21.65;41.75
55187;BME280;55457;52.002;5.464;2023-12-29T07:03:16;100348.53;;;21.63;41.90
55187;BME280;55457;52.002;5.464;2023-12-29T07:05:42;100352.34;;;21.62;41.77
55187;BME280;55457;52.002;5.464;2023-12-29T07:08:07;100368.63;;;21.62;41.84
55187;BME280;55457;52.002;5.464;2023-12-29T07:10:32;100355.06;;;21.62;41.80
55187;BME280;55457;52.002;5.464;2023-12-29T07:12:58;100353.97;;;21.63;42.02
55187;BME280;55457;52.002;5.464;2023-12-29T07:15:23;100356.69;;;21.63;42.22
55187;BME280;55457;52.002;5.464;2023-12-29T07:17:48;100358.84;;;21.61;42.28
55187;BME280;55457;52.002;5.464;2023-12-29T07:20:14;100342.81;;;21.60;42.79
55187;BME280;55457;52.002;5.464;2023-12-29T07:22:40;100353.94;;;21.58;42.75
55187;BME280;55457;52.002;5.464;2023-12-29T07:25:05;100349.03;;;21.55;43.10
55187;BME280;55457;52.002;5.464;2023-12-29T07:27:30;100351.19;;;21.53;43.10
55187;BME280;55457;52.002;5.464;2023-12-29T07:29:56;100357.97;;;21.51;43.58
55187;BME280;55457;52.002;5.464;2023-12-29T07:32:22;100360.94;;;21.49;43.29
55187;BME280;55457;52.002;5.464;2023-12-29T07:34:47;100353.88;;;21.48;43.60
55187;BME280;55457;52.002;5.464;2023-12-29T07:37:14;100363.09;;;21.47;43.19
55187;BME280;55457;52.002;5.464;2023-12-29T07:39:39;100360.94;;;21.49;43.65
55187;BME280;55457;52.002;5.464;2023-12-29T07:42:05;100355.50;;;21.49;43.74
55187;BME280;55457;52.002;5.464;2023-12-29T07:44:30;100360.13;;;21.49;43.51
55187;BME280;55457;52.002;5.464;2023-12-29T07:46:57;100364.22;;;21.51;43.40
55187;BME280;55457;52.002;5.464;2023-12-29T07:49:22;100359.59;;;21.52;43.62
55187;BME280;55457;52.002;5.464;2023-12-29T07:51:48;100355.00;;;21.52;43.48
55187;BME280;55457;52.002;5.464;2023-12-29T07:54:13;100372.88;;;21.53;43.48
55187;BME280;55457;52.002;5.464;2023-12-29T07:56:39;100360.41;;;21.52;43.25
55187;BME280;55457;52.002;5.464;2023-12-29T07:59:04;100360.13;;;21.49;43.50
55187;BME280;55457;52.002;5.464;2023-12-29T08:01:30;100359.03;;;21.50;43.46
55187;BME280;55457;52.002;5.464;2023-12-29T08:03:55;100373.94;;;21.47;43.59
55187;BME280;55457;52.002;5.464;2023-12-29T08:06:20;100374.25;;;21.51;43.45
55187;BME280;55457;52.002;5.464;2023-12-29T08:08:46;100357.72;;;21.52;43.56
55187;BME280;55457;52.002;5.464;2023-12-29T08:11:15;100363.66;;;21.54;43.41
55187;BME280;55457;52.002;5.464;2023-12-29T08:13:44;100359.88;;;21.55;43.20
55187;BME280;55457;52.002;5.464;2023-12-29T08:16:10;100353.63;;;21.55;43.28
55187;BME280;55457;52.002;5.464;2023-12-29T08:18:35;100367.47;;;21.53;43.31
55187;BME280;55457;52.002;5.464;2023-12-29T08:21:01;100379.94;;;21.54;43.24
55187;BME280;55457;52.002;5.464;2023-12-29T08:23:27;100359.59;;;21.52;43.24
55187;BME280;55457;52.002;5.464;2023-12-29T08:25:52;100366.66;;;21.53;43.07
55187;BME280;55457;52.002;5.464;2023-12-29T08:28:18;100379.94;;;21.54;43.23
55187;BME280;55457;52.002;5.464;2023-12-29T08:30:43;100388.66;;;21.56;43.60
55187;BME280;55457;52.002;5.464;2023-12-29T08:33:11;100388.91;;;21.60;43.65
55187;BME280;55457;52.002;5.464;2023-12-29T08:35:38;100399.25;;;21.63;43.40
55187;BME280;55457;52.002;5.464;2023-12-29T08:38:03;100399.56;;;21.67;43.25
55187;BME280;55457;52.002;5.464;2023-12-29T08:40:29;100396.56;;;21.68;43.10
55187;BME280;55457;52.002;5.464;2023-12-29T08:42:54;100392.78;;;21.69;43.34
55187;BME280;55457;52.002;5.464;2023-12-29T08:45:20;100390.59;;;21.71;43.13
55187;BME280;55457;52.002;5.464;2023-12-29T08:47:45;100386.03;;;21.72;43.46
55187;BME280;55457;52.002;5.464;2023-12-29T08:50:10;100392.25;;;21.72;43.20
55187;BME280;55457;52.002;5.464;2023-12-29T08:52:36;100400.63;;;21.71;43.17
55187;BME280;55457;52.002;5.464;2023-12-29T08:55:01;100396.56;;;21.68;43.61
55187;BME280;55457;52.002;5.464;2023-12-29T08:57:26;100393.00;;;21.62;43.79
55187;BME280;55457;52.002;5.464;2023-12-29T08:59:52;100387.03;;;21.60;44.14
55187;BME280;55457;52.002;5.464;2023-12-29T09:02:17;100384.88;;;21.62;43.95
55187;BME280;55457;52.002;5.464;2023-12-29T09:04:42;100375.13;;;21.61;43.94
55187;BME280;55457;52.002;5.464;2023-12-29T09:07:08;100382.16;;;21.62;44.19
55187;BME280;55457;52.002;5.464;2023-12-29T09:09:33;100377.25;;;21.59;44.12
55187;BME280;55457;52.002;5.464;2023-12-29T09:11:58;100380.25;;;21.58;44.30
55187;BME280;55457;52.002;5.464;2023-12-29T09:14:24;100384.28;;;21.55;44.33
55187;BME280;55457;52.002;5.464;2023-12-29T09:16:49;100390.28;;;21.57;44.46
55187;BME280;55457;52.002;5.464;2023-12-29T09:19:15;100397.31;;;21.58;44.15
55187;BME280;55457;52.002;5.464;2023-12-29T09:21:41;100406.53;;;21.57;44.39
55187;BME280;55457;52.002;5.464;2023-12-29T09:24:06;100402.75;;;21.58;44.17
55187;BME280;55457;52.002;5.464;2023-12-29T09:26:31;100415.22;;;21.59;44.23
55187;BME280;55457;52.002;5.464;2023-12-29T09:28:57;100400.56;;;21.60;44.22
55187;BME280;55457;52.002;5.464;2023-12-29T09:31:22;100400.56;;;21.60;43.79
55187;BME280;55457;52.002;5.464;2023-12-29T09:33:47;100424.44;;;21.58;43.75
55187;BME280;55457;52.002;5.464;2023-12-29T09:36:13;100424.94;;;21.55;43.70
55187;BME280;55457;52.002;5.464;2023-12-29T09:38:38;100414.91;;;21.56;43.98
55187;BME280;55457;52.002;5.464;2023-12-29T09:41:11;100419.53;;;21.55;43.82
55187;BME280;55457;52.002;5.464;2023-12-29T09:43:40;100415.22;;;21.59;43.90
55187;BME280;55457;52.002;5.464;2023-12-29T09:46:06;100423.66;;;21.63;43.64
55187;BME280;55457;52.002;5.464;2023-12-29T09:48:34;100416.34;;;21.63;43.72
55187;BME280;55457;52.002;5.464;2023-12-29T09:51:02;100432.91;;;21.67;43.77
55187;BME280;55457;52.002;5.464;2023-12-29T09:53:29;100426.69;;;21.67;43.71
55187;BME280;55457;52.002;5.464;2023-12-29T09:55:57;100432.63;;;21.69;43.71
55187;BME280;55457;52.002;5.464;2023-12-29T09:58:23;100428.84;;;21.70;43.54
55187;BME280;55457;52.002;5.464;2023-12-29T10:00:51;100422.34;;;21.71;43.80
55187;BME280;55457;52.002;5.464;2023-12-29T10:03:16;100432.13;;;21.72;43.42
55187;BME280;55457;52.002;5.464;2023-12-29T10:05:43;100428.34;;;21.73;43.59
55187;BME280;55457;52.002;5.464;2023-12-29T10:08:09;100433.50;;;21.74;43.14
55187;BME280;55457;52.002;5.464;2023-12-29T10:10:36;100415.84;;;21.77;43.32
55187;BME280;55457;52.002;5.464;2023-12-29T10:13:03;100415.31;;;21.75;43.17
55187;BME280;55457;52.002;5.464;2023-12-29T10:16:08;100418.84;;;21.75;43.10
55187;BME280;55457;52.002;5.464;2023-12-29T10:18:37;100436.19;;;21.74;43.29
55187;BME280;55457;52.002;5.464;2023-12-29T10:21:15;100414.78;;;21.73;43.39
55187;BME280;55457;52.002;5.464;2023-12-29T10:24:00;100429.41;;;21.72;43.40
55187;BME280;55457;52.002;5.464;2023-12-29T10:26:28;100418.56;;;21.72;43.19
55187;BME280;55457;52.002;5.464;2023-12-29T10:28:54;100427.25;;;21.74;43.37
55187;BME280;55457;52.002;5.464;2023-12-29T10:31:20;100431.03;;;21.73;43.08
55187;BME280;55457;52.002;5.464;2023-12-29T10:33:45;100424.50;;;21.69;43.15
55187;BME280;55457;52.002;5.464;2023-12-29T10:36:15;100429.94;;;21.69;43.42
55187;BME280;55457;52.002;5.464;2023-12-29T10:38:41;100431.56;;;21.70;43.21
55187;BME280;55457;52.002;5.464;2023-12-29T10:41:17;100436.16;;;21.69;43.01
55187;BME280;55457;52.002;5.464;2023-12-29T10:43:44;100441.84;;;21.68;43.12
55187;BME280;55457;52.002;5.464;2023-12-29T10:46:12;100438.59;;;21.71;43.02
55187;BME280;55457;52.002;5.464;2023-12-29T10:48:38;100424.00;;;21.72;43.15
55187;BME280;55457;52.002;5.464;2023-12-29T10:51:04;100447.31;;;21.73;42.98
55187;BME280;55457;52.002;5.464;2023-12-29T10:53:32;100431.59;;;21.75;43.22
55187;BME280;55457;52.002;5.464;2023-12-29T10:55:57;100444.34;;;21.74;43.32
55187;BME280;55457;52.002;5.464;2023-12-29T10:58:28;100448.13;;;21.73;43.11
55187;BME280;55457;52.002;5.464;2023-12-29T11:00:58;100448.94;;;21.74;43.18
55187;BME280;55457;52.002;5.464;2023-12-29T11:03:25;100445.16;;;21.75;43.15
55187;BME280;55457;52.002;5.464;2023-12-29T11:05:51;100452.19;;;21.76;43.09
55187;BME280;55457;52.002;5.464;2023-12-29T11:08:23;100454.91;;;21.76;43.08
55187;BME280;55457;52.002;5.464;2023-12-29T11:10:49;100468.47;;;21.76;43.37
55187;BME280;55457;52.002;5.464;2023-12-29T11:13:14;100459.53;;;21.75;43.59
55187;BME280;55457;52.002;5.464;2023-12-29T11:15:43;100460.34;;;21.76;43.33
55187;BME280;55457;52.002;5.464;2023-12-29T11:18:16;100457.63;;;21.76;43.18
55187;BME280;55457;52.002;5.464;2023-12-29T11:20:43;100470.09;;;21.77;43.37
55187;BME280;55457;52.002;5.464;2023-12-29T11:23:10;100463.06;;;21.76;43.09
55187;BME280;55457;52.002;5.464;2023-12-29T11:25:36;100460.38;;;21.81;43.73
55187;BME280;55457;52.002;5.464;2023-12-29T11:28:03;100464.72;;;21.82;43.75
55187;BME280;55457;52.002;5.464;2023-12-29T11:30:29;100456.34;;;21.83;43.88
55187;BME280;55457;52.002;5.464;2023-12-29T11:32:59;100459.31;;;21.87;43.42
55187;BME280;55457;52.002;5.464;2023-12-29T11:35:33;100463.69;;;21.88;43.97
55187;BME280;55457;52.002;5.464;2023-12-29T11:40:50;100468.06;;;21.94;43.86
55187;BME280;55457;52.002;5.464;2023-12-29T11:43:18;100462.34;;;21.96;43.65
55187;BME280;55457;52.002;5.464;2023-12-29T11:45:43;100461.28;;;21.97;43.85
55187;BME280;55457;52.002;5.464;2023-12-29T11:48:10;100458.31;;;21.98;43.53
55187;BME280;55457;52.002;5.464;2023-12-29T11:50:38;100457.22;;;21.99;43.58
55187;BME280;55457;52.002;5.464;2023-12-29T11:53:07;100474.06;;;22.01;43.82
55187;BME280;55457;52.002;5.464;2023-12-29T11:55:35;100465.91;;;22.01;43.80
55187;BME280;55457;52.002;5.464;2023-12-29T11:58:02;100458.59;;;22.02;43.55
55187;BME280;55457;52.002;5.464;2023-12-29T12:00:43;100466.72;;;22.02;43.75
55187;BME280;55457;52.002;5.464;2023-12-29T12:03:19;100458.88;;;22.00;43.66
55187;BME280;55457;52.002;5.464;2023-12-29T12:05:49;100458.88;;;22.00;43.53
55187;BME280;55457;52.002;5.464;2023-12-29T12:08:34;100453.44;;;22.00;43.66
55187;BME280;55457;52.002;5.464;2023-12-29T12:14:04;100446.38;;;21.99;44.15
55187;BME280;55457;52.002;5.464;2023-12-29T12:19:11;100448.81;;;22.01;43.52
55187;BME280;55457;52.002;5.464;2023-12-29T12:21:37;100442.56;;;22.00;43.47
55187;BME280;55457;52.002;5.464;2023-12-29T12:24:04;100445.84;;;22.02;43.57
55187;BME280;55457;52.002;5.464;2023-12-29T12:26:30;100438.25;;;22.04;43.31
55187;BME280;55457;52.002;5.464;2023-12-29T12:28:56;100438.25;;;22.04;43.17
55187;BME280;55457;52.002;5.464;2023-12-29T12:31:22;100439.34;;;22.03;43.22
55187;BME280;55457;52.002;5.464;2023-12-29T12:33:58;100438.25;;;22.04;43.57
55187;BME280;55457;52.002;5.464;2023-12-29T12:36:24;100422.78;;;22.05;43.55
55187;BME280;55457;52.002;5.464;2023-12-29T12:38:53;100430.94;;;22.05;43.23
55187;BME280;55457;52.002;5.464;2023-12-29T12:41:19;100416.81;;;22.08;43.32
55187;BME280;55457;52.002;5.464;2023-12-29T12:43:50;100406.25;;;22.06;43.20
55187;BME280;55457;52.002;5.464;2023-12-29T12:46:22;100415.53;;;22.10;43.51
55187;BME280;55457;52.002;5.464;2023-12-29T12:48:52;100412.25;;;22.08;43.31
55187;BME280;55457;52.002;5.464;2023-12-29T12:51:19;100417.41;;;22.10;43.20
55187;BME280;55457;52.002;5.464;2023-12-29T12:53:44;100414.16;;;22.13;43.08
55187;BME280;55457;52.002;5.464;2023-12-29T12:56:12;100420.97;;;22.16;43.00